createdAt,value
2017-07-12T00:03:19.286Z,1003.92
2017-07-12T00:08:15.056Z,1003.97
2017-07-12T00:13:10.846Z,1003.93
2017-07-12T00:18:06.720Z,1003.90
2017-07-12T00:23:02.669Z,1003.84
2017-07-12T00:27:58.384Z,1003.77
2017-07-12T00:32:54.694Z,1003.61
2017-07-12T00:37:51.603Z,1003.50
2017-07-12T00:42:47.002Z,1003.59
2017-07-12T00:47:43.308Z,1003.51
2017-07-12T00:52:40.441Z,1003.47
2017-07-12T00:57:35.919Z,1003.51
2017-07-12T01:02:32.083Z,1003.46
2017-07-12T01:07:27.756Z,1003.41
2017-07-12T01:12:23.621Z,1003.42
2017-07-12T01:17:19.530Z,1003.53
2017-07-12T01:22:15.352Z,1003.51
2017-07-12T01:27:10.976Z,1003.45
2017-07-12T01:32:06.411Z,1003.40
2017-07-12T01:37:03.840Z,1003.38
2017-07-12T01:42:00.414Z,1003.34
2017-07-12T01:46:55.897Z,1003.21
2017-07-12T01:51:51.605Z,1003.25
2017-07-12T01:56:47.622Z,1003.23
2017-07-12T02:01:43.403Z,1003.25
2017-07-12T02:06:39.379Z,1003.10
2017-07-12T02:11:36.228Z,1003.10
2017-07-12T02:16:33.012Z,1003.01
2017-07-12T02:21:28.748Z,1002.89
2017-07-12T02:26:24.493Z,1002.92
2017-07-12T02:31:20.371Z,1002.99
2017-07-12T02:36:16.224Z,1002.96
2017-07-12T02:41:12.955Z,1002.88
2017-07-12T02:46:09.378Z,1002.83
2017-07-12T02:51:04.935Z,1002.64
2017-07-12T02:56:00.982Z,1002.67
2017-07-12T03:00:56.831Z,1002.63
2017-07-12T03:05:53.911Z,1002.57
2017-07-12T03:10:49.448Z,1002.65
2017-07-12T03:15:45.328Z,1002.67
2017-07-12T03:20:42.085Z,1002.60
2017-07-12T03:25:38.663Z,1002.67
2017-07-12T03:30:35.319Z,1002.50
2017-07-12T03:35:30.871Z,1002.36
2017-07-12T03:40:26.548Z,1002.37
2017-07-12T03:45:23.800Z,1002.28
2017-07-12T03:50:19.426Z,1002.26
2017-07-12T03:55:16.235Z,1002.27
2017-07-12T04:00:13.279Z,1002.22
2017-07-12T04:05:11.014Z,1002.09
2017-07-12T04:10:06.209Z,1001.98
2017-07-12T04:15:03.915Z,1001.86
2017-07-12T04:19:59.274Z,1001.92
2017-07-12T04:24:55.363Z,1001.77
2017-07-12T04:29:51.155Z,1001.91
2017-07-12T04:34:48.338Z,1001.96
2017-07-12T04:39:45.082Z,1001.93
2017-07-12T04:44:40.877Z,1001.78
2017-07-12T04:49:37.752Z,1001.63
2017-07-12T04:54:33.497Z,1001.67
2017-07-12T04:59:29.427Z,1001.68
2017-07-12T05:04:25.203Z,1001.58
2017-07-12T05:09:21.092Z,1001.45
2017-07-12T05:14:17.247Z,1001.47
2017-07-12T05:19:13.387Z,1001.33
2017-07-12T05:24:09.168Z,1001.36
2017-07-12T05:29:04.966Z,1001.24
2017-07-12T05:34:01.075Z,1001.38
2017-07-12T05:38:57.085Z,1001.32
2017-07-12T05:43:53.002Z,1001.24
2017-07-12T05:48:48.902Z,1001.30
2017-07-12T05:53:45.844Z,1001.18
2017-07-12T05:58:41.028Z,1001.08
2017-07-12T06:03:37.268Z,1001.07
2017-07-12T06:08:34.207Z,1001.04
2017-07-12T06:13:29.935Z,1000.89
2017-07-12T06:18:25.929Z,1000.89
2017-07-12T06:23:23.098Z,1000.85
2017-07-12T06:28:18.632Z,1000.86
2017-07-12T06:33:14.797Z,1000.77
2017-07-12T06:38:10.869Z,1000.77
2017-07-12T06:43:06.909Z,1000.70
2017-07-12T06:48:03.481Z,1000.64
2017-07-12T06:53:00.066Z,1000.62
2017-07-12T06:57:55.803Z,1000.68
2017-07-12T07:02:51.939Z,1000.63
2017-07-12T07:07:47.769Z,1000.50
2017-07-12T07:12:43.480Z,1000.42
2017-07-12T07:17:39.073Z,1000.33
2017-07-12T07:22:35.172Z,1000.25
2017-07-12T07:27:30.910Z,1000.17
2017-07-12T07:32:27.460Z,1000.15
2017-07-12T07:37:24.281Z,1000.13
2017-07-12T07:42:20.285Z,999.95
2017-07-12T07:47:16.226Z,999.99
2017-07-12T07:52:12.163Z,999.96
2017-07-12T07:57:09.047Z,999.95
2017-07-12T08:02:04.491Z,999.83
2017-07-12T08:07:00.657Z,999.87
2017-07-12T08:11:57.285Z,999.87
2017-07-12T08:16:52.846Z,999.79
2017-07-12T08:21:49.586Z,999.77
2017-07-12T08:26:45.171Z,999.88
2017-07-12T08:31:41.073Z,999.86
2017-07-12T08:36:37.443Z,999.94
2017-07-12T08:41:34.512Z,999.84
2017-07-12T08:46:30.755Z,999.84
2017-07-12T08:51:26.729Z,999.74
2017-07-12T08:56:23.474Z,999.65
2017-07-12T09:01:18.942Z,999.54
2017-07-12T09:06:14.783Z,999.57
2017-07-12T09:11:11.661Z,999.53
2017-07-12T09:16:08.704Z,999.49
2017-07-12T09:21:04.578Z,999.49
2017-07-12T09:35:52.269Z,999.50
2017-07-12T09:40:48.434Z,999.54
2017-07-12T09:45:44.457Z,999.52
2017-07-12T09:50:41.505Z,999.36
2017-07-12T09:55:37.245Z,999.55
2017-07-12T10:00:33.316Z,999.62
2017-07-12T10:05:30.273Z,999.46
2017-07-12T10:10:25.957Z,999.58
2017-07-12T10:15:22.506Z,999.55
2017-07-12T10:20:19.659Z,999.55
2017-07-12T10:25:16.230Z,999.54
2017-07-12T10:30:13.231Z,999.35
2017-07-12T10:35:08.666Z,999.45
2017-07-12T10:40:04.297Z,999.39
2017-07-12T10:44:59.854Z,999.51
2017-07-12T10:49:55.514Z,999.42
2017-07-12T10:54:52.092Z,999.56
2017-07-12T10:59:48.589Z,999.54
2017-07-12T11:04:43.903Z,999.43
2017-07-12T11:09:40.031Z,999.49
2017-07-12T11:14:35.969Z,999.54
2017-07-12T11:19:32.284Z,999.57
2017-07-12T11:24:27.896Z,999.61
2017-07-12T11:29:23.925Z,999.74
2017-07-12T11:34:19.877Z,999.71
2017-07-12T11:39:15.613Z,999.73
2017-07-12T11:44:11.582Z,999.78
2017-07-12T11:49:08.397Z,999.97
2017-07-12T11:54:03.919Z,999.84
2017-07-12T11:59:00.088Z,999.95
2017-07-12T12:03:56.374Z,999.92
2017-07-12T12:08:52.146Z,999.98
2017-07-12T12:13:48.527Z,999.98
2017-07-12T12:18:45.171Z,999.97
2017-07-12T12:23:40.906Z,999.94
2017-07-12T12:28:36.916Z,1000.15
2017-07-12T12:33:33.762Z,1000.22
2017-07-12T12:38:30.840Z,1000.34
2017-07-12T12:43:26.697Z,1000.52
2017-07-12T12:48:24.815Z,1000.73
2017-07-12T12:53:21.608Z,1000.85
2017-07-12T12:58:17.776Z,1001.05
2017-07-12T13:03:14.628Z,1001.16
2017-07-12T13:08:16.931Z,1001.23
2017-07-12T13:13:12.970Z,1001.43
2017-07-12T13:18:10.025Z,1001.49
2017-07-12T13:23:05.529Z,1001.59
2017-07-12T13:28:02.550Z,1001.64
2017-07-12T13:32:58.189Z,1001.74
2017-07-12T13:37:54.147Z,1001.86
2017-07-12T13:42:51.400Z,1001.96
2017-07-12T13:47:47.494Z,1002.01
2017-07-12T13:52:45.798Z,1002.03
2017-07-12T13:57:42.413Z,1002.03
2017-07-12T14:02:39.238Z,1002.31
2017-07-12T14:07:35.507Z,1002.66
2017-07-12T14:12:31.821Z,1002.93
2017-07-12T14:17:28.786Z,1003.01
2017-07-12T14:22:25.962Z,1003.08
2017-07-12T14:27:21.887Z,1003.27
2017-07-12T14:32:17.628Z,1003.35
2017-07-12T14:37:15.507Z,1003.49
2017-07-12T14:42:10.525Z,1003.93
2017-07-12T14:47:06.030Z,1004.06
2017-07-12T14:52:01.584Z,1004.38
2017-07-12T14:56:57.756Z,1004.58
2017-07-12T15:01:53.937Z,1004.95
2017-07-12T15:06:49.517Z,1005.16
2017-07-12T15:11:46.413Z,1005.18
2017-07-12T15:16:43.737Z,1005.45
2017-07-12T15:21:39.009Z,1005.71
2017-07-12T15:26:34.806Z,1005.89
2017-07-12T15:31:31.562Z,1006.15
2017-07-12T15:36:27.151Z,1006.22
2017-07-12T15:41:23.260Z,1006.21
2017-07-12T15:46:19.811Z,1006.42
2017-07-12T15:51:16.939Z,1006.50
2017-07-12T15:56:12.853Z,1006.70
2017-07-12T16:01:08.727Z,1006.75
2017-07-12T16:06:04.567Z,1006.95
2017-07-12T16:11:00.158Z,1007.05
2017-07-12T16:15:55.568Z,1007.37
2017-07-12T16:20:51.282Z,1007.30
2017-07-12T16:25:47.157Z,1007.41
2017-07-12T16:30:44.482Z,1007.40
2017-07-12T16:35:40.156Z,1007.56
2017-07-12T16:40:36.081Z,1007.64
2017-07-12T16:45:33.740Z,1007.81
2017-07-12T16:50:29.884Z,1007.88
2017-07-12T16:55:26.855Z,1008.03
2017-07-12T17:00:23.573Z,1008.17
2017-07-12T17:05:19.192Z,1008.25
2017-07-12T17:10:16.243Z,1008.40
2017-07-12T17:15:11.637Z,1008.55
2017-07-12T17:20:07.459Z,1008.60
2017-07-12T17:25:04.316Z,1008.74
2017-07-12T17:29:59.816Z,1008.91
2017-07-12T17:34:55.788Z,1009.12
2017-07-12T17:39:52.599Z,1009.17
2017-07-12T17:44:48.493Z,1009.34
2017-07-12T17:49:45.532Z,1009.44
2017-07-12T17:54:40.837Z,1009.59
2017-07-12T17:59:36.730Z,1009.65
2017-07-12T18:04:32.820Z,1009.82
2017-07-12T18:09:28.534Z,1010.04
2017-07-12T18:14:24.555Z,1010.11
2017-07-12T18:19:20.985Z,1010.21
2017-07-12T18:24:17.333Z,1010.20
2017-07-12T18:29:13.318Z,1010.39
2017-07-12T18:34:15.494Z,1010.55
2017-07-12T18:39:11.238Z,1010.67
2017-07-12T18:44:06.979Z,1010.67
2017-07-12T18:49:02.951Z,1010.85
2017-07-12T18:53:58.952Z,1010.96
2017-07-12T18:58:54.762Z,1010.96
2017-07-12T19:03:51.326Z,1011.12
2017-07-12T19:08:46.824Z,1011.13
2017-07-12T19:13:43.884Z,1011.22
2017-07-12T19:18:40.209Z,1011.32
2017-07-12T19:23:36.012Z,1011.35
2017-07-12T19:28:32.147Z,1011.49
2017-07-12T19:33:27.873Z,1011.61
2017-07-12T19:38:23.853Z,1011.67
2017-07-12T19:43:20.718Z,1011.74
2017-07-12T19:48:16.516Z,1011.93
2017-07-12T19:53:14.485Z,1011.99
2017-07-12T19:58:09.896Z,1011.93
2017-07-12T20:03:05.677Z,1012.12
2017-07-12T20:08:01.643Z,1012.17
2017-07-12T20:12:57.384Z,1012.36
2017-07-12T20:17:53.315Z,1012.40
2017-07-12T20:22:49.209Z,1012.50
2017-07-12T20:27:45.404Z,1012.47
2017-07-12T20:32:42.191Z,1012.54
2017-07-12T20:37:38.821Z,1012.60
2017-07-12T20:42:35.108Z,1012.76
2017-07-12T20:47:30.836Z,1012.75
2017-07-12T20:52:26.933Z,1012.84
2017-07-12T20:57:22.800Z,1012.90
2017-07-12T21:02:18.601Z,1012.97
2017-07-12T21:07:14.507Z,1013.05
2017-07-12T21:12:10.228Z,1013.14
2017-07-12T21:17:06.018Z,1013.15
2017-07-12T21:22:01.753Z,1013.21
2017-07-12T21:26:57.232Z,1013.30
2017-07-12T21:31:52.980Z,1013.37
2017-07-12T21:36:48.953Z,1013.50
2017-07-12T21:41:45.006Z,1013.53
2017-07-12T21:46:41.077Z,1013.62
2017-07-12T21:51:37.910Z,1013.65
2017-07-12T21:56:33.373Z,1013.75
2017-07-12T22:01:30.047Z,1013.87
2017-07-12T22:06:26.746Z,1013.91
2017-07-12T22:11:23.089Z,1013.96
2017-07-12T22:16:18.381Z,1014.06
2017-07-12T22:21:15.365Z,1014.13
2017-07-12T22:26:11.834Z,1014.21
2017-07-12T22:31:07.279Z,1014.22
2017-07-12T22:36:03.406Z,1014.28
2017-07-12T22:40:59.310Z,1014.33
2017-07-12T22:45:55.263Z,1014.35
2017-07-12T22:50:50.805Z,1014.30
2017-07-12T22:55:46.997Z,1014.37
2017-07-12T23:00:43.530Z,1014.47
2017-07-12T23:05:39.083Z,1014.49
2017-07-12T23:10:35.168Z,1014.53
2017-07-12T23:15:30.852Z,1014.60
2017-07-12T23:20:26.841Z,1014.55
2017-07-12T23:25:25.024Z,1014.58
2017-07-12T23:30:20.402Z,1014.59
2017-07-12T23:35:16.368Z,1014.57
2017-07-12T23:40:12.340Z,1014.78
2017-07-12T23:45:08.148Z,1014.67
2017-07-12T23:50:04.716Z,1014.77
2017-07-12T23:55:01.503Z,1014.74
2017-07-12T23:59:57.091Z,1014.78
